createdAt,value
2023-01-17T00:01:55.673Z,13.95
2023-01-17T00:04:40.970Z,7.88
2023-01-17T00:07:29.192Z,8.23
2023-01-17T00:09:57.783Z,7.18
2023-01-17T00:12:26.057Z,8.15
2023-01-17T00:14:54.581Z,6.72
2023-01-17T00:17:22.699Z,7.15
2023-01-17T00:20:07.941Z,7.30
2023-01-17T00:22:53.573Z,5.60
2023-01-17T00:25:45.117Z,6.65
2023-01-17T00:28:11.828Z,6.00
2023-01-17T00:30:38.512Z,10.05
2023-01-17T00:33:05.426Z,9.80
2023-01-17T00:35:32.573Z,7.30
2023-01-17T00:38:03.660Z,10.13
2023-01-17T00:40:30.623Z,4.97
2023-01-17T00:43:15.870Z,5.88
2023-01-17T00:46:04.823Z,14.32
2023-01-17T00:48:51.852Z,6.93
2023-01-17T00:51:37.111Z,4.55
2023-01-17T00:54:22.716Z,6.30
2023-01-17T00:57:08.204Z,4.63
2023-01-17T00:59:53.670Z,10.57
2023-01-17T01:02:38.892Z,13.00
2023-01-17T01:05:24.495Z,7.00
2023-01-17T01:08:09.588Z,7.22
2023-01-17T01:10:55.233Z,5.45
2023-01-17T01:13:44.390Z,5.32
2023-01-17T01:16:29.887Z,5.35
2023-01-17T01:19:15.334Z,5.97
2023-01-17T01:22:00.801Z,5.72
2023-01-17T01:24:46.277Z,6.15
2023-01-17T01:27:31.798Z,5.25
2023-01-17T01:30:17.454Z,4.63
2023-01-17T01:33:02.797Z,4.68
2023-01-17T01:35:29.717Z,7.10
2023-01-17T01:37:56.450Z,6.93
2023-01-17T01:40:23.142Z,7.90
2023-01-17T01:42:54.343Z,5.20
2023-01-17T01:45:26.022Z,5.03
2023-01-17T01:47:55.727Z,7.50
2023-01-17T01:50:22.673Z,4.95
2023-01-17T01:52:53.538Z,6.47
2023-01-17T01:55:25.705Z,6.20
2023-01-17T01:57:55.459Z,7.75
2023-01-17T02:00:29.723Z,5.68
2023-01-17T02:02:58.351Z,6.35
2023-01-17T02:05:25.770Z,6.70
2023-01-17T02:07:56.681Z,7.05
2023-01-17T02:10:24.113Z,5.18
2023-01-17T02:12:51.931Z,6.43
2023-01-17T02:15:19.046Z,6.55
2023-01-17T02:18:02.128Z,3.90
2023-01-17T02:21:06.073Z,6.95
2023-01-17T02:23:51.320Z,7.15
2023-01-17T02:26:43.003Z,3.85
2023-01-17T02:29:34.239Z,7.00
2023-01-17T02:32:05.284Z,5.28
2023-01-17T02:34:45.792Z,5.45
2023-01-17T02:37:22.726Z,4.28
2023-01-17T02:39:54.190Z,4.95
2023-01-17T02:42:21.253Z,5.28
2023-01-17T02:44:47.992Z,5.68
2023-01-17T02:47:25.420Z,6.70
2023-01-17T02:49:53.476Z,6.38
2023-01-17T02:52:46.003Z,7.50
2023-01-17T02:55:50.273Z,6.28
2023-01-17T02:58:50.755Z,5.85
2023-01-17T03:01:37.805Z,4.20
2023-01-17T03:04:14.993Z,7.20
2023-01-17T03:07:06.411Z,3.83
2023-01-17T03:09:33.172Z,4.70
2023-01-17T03:11:59.924Z,2.85
2023-01-17T03:14:27.843Z,4.65
2023-01-17T03:16:54.651Z,5.78
2023-01-17T03:19:21.414Z,5.05
2023-01-17T03:21:49.357Z,6.97
2023-01-17T03:24:16.304Z,5.35
2023-01-17T03:26:45.001Z,3.75
2023-01-17T03:29:11.842Z,9.00
2023-01-17T03:31:38.492Z,3.65
2023-01-17T03:34:05.185Z,3.33
2023-01-17T03:36:31.918Z,4.50
2023-01-17T03:38:58.573Z,7.03
2023-01-17T03:41:25.389Z,4.35
2023-01-17T03:43:52.133Z,4.88
2023-01-17T03:46:24.605Z,5.05
2023-01-17T03:48:51.774Z,6.82
2023-01-17T03:51:18.526Z,6.47
2023-01-17T03:53:47.924Z,5.68
2023-01-17T03:56:14.721Z,5.45
2023-01-17T03:58:41.590Z,3.60
2023-01-17T04:01:08.539Z,6.18
2023-01-17T04:03:35.357Z,5.25
2023-01-17T04:06:03.120Z,4.53
2023-01-17T04:08:30.566Z,5.03
2023-01-17T04:10:57.400Z,5.43
2023-01-17T04:13:24.140Z,8.77
2023-01-17T04:15:51.011Z,6.43
2023-01-17T04:18:18.287Z,4.72
2023-01-17T04:20:45.003Z,5.05
2023-01-17T04:23:11.734Z,5.53
2023-01-17T04:25:38.447Z,8.00
2023-01-17T04:28:05.424Z,4.85
2023-01-17T04:30:32.431Z,5.47
2023-01-17T04:32:59.164Z,3.63
2023-01-17T04:35:25.949Z,3.60
2023-01-17T04:37:52.792Z,3.60
2023-01-17T04:40:19.698Z,5.85
2023-01-17T04:42:46.556Z,7.05
2023-01-17T04:45:13.533Z,4.50
2023-01-17T04:47:40.431Z,6.35
2023-01-17T04:50:07.788Z,8.88
2023-01-17T04:52:34.536Z,5.35
2023-01-17T04:55:01.533Z,10.25
2023-01-17T04:57:28.859Z,3.95
2023-01-17T04:59:55.617Z,4.78
2023-01-17T05:02:22.432Z,5.80
2023-01-17T05:04:49.227Z,4.78
2023-01-17T05:07:15.974Z,7.15
2023-01-17T05:09:43.840Z,6.57
2023-01-17T05:12:10.745Z,4.93
2023-01-17T05:14:37.459Z,3.72
2023-01-17T05:17:04.194Z,4.93
2023-01-17T05:19:30.891Z,5.55
2023-01-17T05:22:03.851Z,4.20
2023-01-17T05:24:31.426Z,2.53
2023-01-17T05:27:02.941Z,4.88
2023-01-17T05:29:30.508Z,6.22
2023-01-17T05:31:57.353Z,2.80
2023-01-17T05:34:24.219Z,3.53
2023-01-17T05:36:50.963Z,4.05
2023-01-17T05:39:17.722Z,5.00
2023-01-17T05:41:44.689Z,2.85
2023-01-17T05:44:11.582Z,4.53
2023-01-17T05:46:38.421Z,3.97
2023-01-17T05:49:05.517Z,5.95
2023-01-17T05:51:32.469Z,5.95
2023-01-17T05:53:59.228Z,5.68
2023-01-17T05:56:26.007Z,4.85
2023-01-17T05:58:52.842Z,5.97
2023-01-17T06:01:19.800Z,5.53
2023-01-17T06:03:46.536Z,8.50
2023-01-17T06:06:13.576Z,4.60
2023-01-17T06:08:40.321Z,4.43
2023-01-17T06:11:07.050Z,6.03
2023-01-17T06:13:33.780Z,5.70
2023-01-17T06:16:04.266Z,9.48
2023-01-17T06:18:31.481Z,4.05
2023-01-17T06:20:58.216Z,4.55
2023-01-17T06:23:24.993Z,8.77
2023-01-17T06:25:52.106Z,6.32
2023-01-17T06:28:20.585Z,5.35
2023-01-17T06:30:47.397Z,4.75
2023-01-17T06:33:14.288Z,4.10
2023-01-17T06:35:47.504Z,6.05
2023-01-17T06:38:14.209Z,6.33
2023-01-17T06:40:40.903Z,9.15
2023-01-17T06:43:07.632Z,3.80
2023-01-17T06:45:34.730Z,6.38
2023-01-17T06:48:03.752Z,8.90
2023-01-17T06:50:30.801Z,5.63
2023-01-17T06:52:59.591Z,8.02
2023-01-17T06:55:28.864Z,6.45
2023-01-17T06:57:56.695Z,8.80
2023-01-17T07:00:23.647Z,6.55
2023-01-17T07:02:51.000Z,10.73
2023-01-17T07:05:17.805Z,7.28
2023-01-17T07:07:44.985Z,4.60
2023-01-17T07:10:12.818Z,4.20
2023-01-17T07:12:40.180Z,17.60
2023-01-17T07:15:07.530Z,8.43
2023-01-17T07:17:34.515Z,7.63
2023-01-17T07:20:01.562Z,7.13
2023-01-17T07:22:28.331Z,4.75
2023-01-17T07:24:58.781Z,5.20
2023-01-17T07:27:27.730Z,6.65
2023-01-17T07:29:54.606Z,7.53
2023-01-17T07:32:21.384Z,9.10
2023-01-17T07:34:48.878Z,7.53
2023-01-17T07:37:15.655Z,7.10
2023-01-17T07:39:42.436Z,5.53
2023-01-17T07:42:09.295Z,6.22
2023-01-17T07:44:36.144Z,6.78
2023-01-17T07:47:04.328Z,8.30
2023-01-17T07:49:31.141Z,5.18
2023-01-17T07:51:57.970Z,8.02
2023-01-17T07:54:24.907Z,7.07
2023-01-17T07:56:51.656Z,4.22
2023-01-17T07:59:18.574Z,10.20
2023-01-17T08:01:45.454Z,14.20
2023-01-17T08:04:14.082Z,5.93
2023-01-17T08:06:42.846Z,7.22
2023-01-17T08:09:09.651Z,5.85
2023-01-17T08:11:36.383Z,6.60
2023-01-17T08:14:03.171Z,5.47
2023-01-17T08:16:30.155Z,6.18
2023-01-17T08:18:56.965Z,4.78
2023-01-17T08:21:23.861Z,3.83
2023-01-17T08:23:51.231Z,8.93
2023-01-17T08:26:22.327Z,3.97
2023-01-17T08:28:56.807Z,5.38
2023-01-17T08:31:24.187Z,4.07
2023-01-17T08:33:50.932Z,6.22
2023-01-17T08:36:17.683Z,6.45
2023-01-17T08:38:44.490Z,8.32
2023-01-17T08:41:12.919Z,5.72
2023-01-17T08:43:40.278Z,4.68
2023-01-17T08:46:07.118Z,5.35
2023-01-17T08:48:33.854Z,6.15
2023-01-17T08:51:04.434Z,4.85
2023-01-17T08:53:31.180Z,4.18
2023-01-17T08:55:59.601Z,8.80
2023-01-17T08:58:29.154Z,7.60
2023-01-17T09:01:02.407Z,4.85
2023-01-17T09:03:30.301Z,9.80
2023-01-17T09:06:04.163Z,5.88
2023-01-17T09:08:31.735Z,6.25
2023-01-17T09:10:58.699Z,8.98
2023-01-17T09:13:25.640Z,8.77
2023-01-17T09:15:57.004Z,7.43
2023-01-17T09:18:24.778Z,7.03
2023-01-17T09:20:55.992Z,7.38
2023-01-17T09:23:23.064Z,10.18
2023-01-17T09:25:56.982Z,10.02
2023-01-17T09:28:24.541Z,10.77
2023-01-17T09:30:51.459Z,7.38
2023-01-17T09:33:18.405Z,7.85
2023-01-17T09:35:45.737Z,8.88
2023-01-17T09:38:12.671Z,9.45
2023-01-17T09:40:45.913Z,9.25
2023-01-17T09:43:43.968Z,10.00
2023-01-17T09:46:22.416Z,6.90
2023-01-17T09:48:51.363Z,18.98
2023-01-17T09:51:26.753Z,8.32
2023-01-17T09:53:53.526Z,8.65
2023-01-17T09:56:29.615Z,19.27
2023-01-17T09:59:20.491Z,16.25
2023-01-17T10:01:59.020Z,17.80
2023-01-17T10:04:34.973Z,14.40
2023-01-17T10:07:23.875Z,14.88
2023-01-17T10:10:17.651Z,11.10
2023-01-17T10:12:58.504Z,10.07
2023-01-17T10:15:44.651Z,7.75
2023-01-17T10:18:33.356Z,11.63
2023-01-17T10:21:18.781Z,16.90
2023-01-17T10:24:41.439Z,13.40
2023-01-17T10:27:30.570Z,14.82
2023-01-17T10:29:57.256Z,11.23
2023-01-17T10:32:25.131Z,15.18
2023-01-17T10:34:52.440Z,10.20
2023-01-17T10:37:41.741Z,9.57
2023-01-17T10:40:28.507Z,14.18
2023-01-17T10:43:03.322Z,12.48
2023-01-17T10:45:30.117Z,17.95
2023-01-17T10:48:23.244Z,12.80
2023-01-17T10:50:59.965Z,16.33
2023-01-17T10:53:29.540Z,12.80
2023-01-17T10:55:56.223Z,13.70
2023-01-17T10:58:23.008Z,11.90
2023-01-17T11:01:00.744Z,13.52
2023-01-17T11:03:28.749Z,11.48
2023-01-17T11:06:15.319Z,12.13
2023-01-17T11:08:58.696Z,21.08
2023-01-17T11:11:35.419Z,12.35
2023-01-17T11:14:05.468Z,13.88
2023-01-17T11:16:32.576Z,11.63
2023-01-17T11:19:21.418Z,8.73
2023-01-17T11:21:54.393Z,11.05
2023-01-17T11:24:35.820Z,16.27
2023-01-17T11:27:04.447Z,12.63
2023-01-17T11:29:31.192Z,21.02
2023-01-17T11:31:58.398Z,11.45
2023-01-17T11:34:32.059Z,10.30
2023-01-17T11:37:18.693Z,19.85
2023-01-17T11:39:48.126Z,14.77
2023-01-17T11:42:35.048Z,12.07
2023-01-17T11:45:30.763Z,14.95
2023-01-17T11:48:11.001Z,13.63
2023-01-17T11:50:39.587Z,14.90
2023-01-17T11:53:28.382Z,18.60
2023-01-17T11:56:12.091Z,24.77
2023-01-17T11:58:40.829Z,24.50
2023-01-17T12:01:27.116Z,20.55
2023-01-17T12:04:08.213Z,20.92
2023-01-17T12:07:11.031Z,15.77
2023-01-17T12:09:58.035Z,13.70
2023-01-17T12:12:53.330Z,16.35
2023-01-17T12:15:20.032Z,14.70
2023-01-17T12:18:14.625Z,13.27
2023-01-17T12:21:05.638Z,21.85
2023-01-17T12:24:06.021Z,15.90
2023-01-17T12:26:42.564Z,16.08
2023-01-17T12:29:31.879Z,18.25
2023-01-17T12:32:36.226Z,11.48
2023-01-17T12:35:15.561Z,11.93
2023-01-17T12:37:50.962Z,15.80
2023-01-17T12:40:51.952Z,14.88
2023-01-17T12:43:22.011Z,12.40
2023-01-17T12:45:49.483Z,13.30
2023-01-17T12:48:20.305Z,10.23
2023-01-17T12:50:54.554Z,15.30
2023-01-17T12:53:33.396Z,13.20
2023-01-17T12:56:01.726Z,12.18
2023-01-17T12:58:31.199Z,21.95
2023-01-17T13:01:14.576Z,15.40
2023-01-17T13:03:50.231Z,24.83
2023-01-17T13:06:24.996Z,29.40
2023-01-17T13:08:53.223Z,24.30
2023-01-17T13:11:56.366Z,13.40
2023-01-17T13:14:23.411Z,9.70
2023-01-17T13:16:58.687Z,16.33
2023-01-17T13:20:02.025Z,12.45
2023-01-17T13:22:28.986Z,19.05
2023-01-17T13:25:00.338Z,13.68
2023-01-17T13:28:00.813Z,14.93
2023-01-17T13:30:32.443Z,14.52
2023-01-17T13:33:25.240Z,17.30
2023-01-17T13:36:00.910Z,14.45
2023-01-17T13:38:44.378Z,13.20
2023-01-17T13:41:50.981Z,17.20
2023-01-17T13:44:24.705Z,10.15
2023-01-17T13:47:04.417Z,19.95
2023-01-17T13:49:34.876Z,15.23
2023-01-17T13:52:05.465Z,15.75
2023-01-17T13:54:32.795Z,14.52
2023-01-17T13:57:30.361Z,16.10
2023-01-17T13:59:58.219Z,14.32
2023-01-17T14:02:37.566Z,14.48
2023-01-17T14:05:55.250Z,24.45
2023-01-17T14:08:22.217Z,15.23
2023-01-17T14:10:52.580Z,15.32
2023-01-17T14:13:38.481Z,17.33
2023-01-17T14:16:27.947Z,15.52
2023-01-17T14:18:55.524Z,18.52
2023-01-17T14:21:26.387Z,16.25
2023-01-17T14:24:13.190Z,11.25
2023-01-17T14:26:51.544Z,19.73
2023-01-17T14:29:43.952Z,13.50
2023-01-17T14:32:21.626Z,19.02
2023-01-17T14:34:50.317Z,15.63
2023-01-17T14:37:45.881Z,12.77
2023-01-17T14:40:20.344Z,22.63
2023-01-17T14:42:48.092Z,20.80
2023-01-17T14:45:18.547Z,21.42
2023-01-17T14:47:45.972Z,22.92
2023-01-17T14:50:21.148Z,18.48
2023-01-17T14:52:48.260Z,17.30
2023-01-17T14:55:17.318Z,18.15
2023-01-17T14:57:55.898Z,18.80
2023-01-17T15:00:25.191Z,15.48
2023-01-17T15:02:53.003Z,16.08
2023-01-17T15:05:21.349Z,13.13
2023-01-17T15:07:53.029Z,16.00
2023-01-17T15:10:25.483Z,19.30
2023-01-17T15:12:52.370Z,17.02
2023-01-17T15:15:38.300Z,18.65
2023-01-17T15:18:29.682Z,16.80
2023-01-17T15:21:01.749Z,25.38
2023-01-17T15:23:34.504Z,24.23
2023-01-17T15:26:02.187Z,21.00
2023-01-17T15:28:29.061Z,23.60
2023-01-17T15:31:24.664Z,23.75
2023-01-17T15:33:55.793Z,19.67
2023-01-17T15:36:26.125Z,18.95
2023-01-17T15:39:00.535Z,23.17
2023-01-17T15:41:31.550Z,15.05
2023-01-17T15:43:58.833Z,21.10
2023-01-17T15:46:33.038Z,25.00
2023-01-17T15:49:17.623Z,15.57
2023-01-17T15:52:08.868Z,18.73
2023-01-17T15:54:47.400Z,19.30
2023-01-17T15:57:32.356Z,25.77
2023-01-17T16:00:00.042Z,22.00
2023-01-17T16:02:42.761Z,20.90
2023-01-17T16:05:22.610Z,24.25
2023-01-17T16:07:53.371Z,15.55
2023-01-17T16:10:23.052Z,16.98
2023-01-17T16:12:53.732Z,17.92
2023-01-17T16:15:23.302Z,18.02
2023-01-17T16:17:51.345Z,18.20
2023-01-17T16:20:22.227Z,19.83
2023-01-17T16:22:50.519Z,21.35
2023-01-17T16:25:22.420Z,16.17
2023-01-17T16:27:49.653Z,20.48
2023-01-17T16:30:18.305Z,15.43
2023-01-17T16:32:48.344Z,16.02
2023-01-17T16:35:22.308Z,16.98
2023-01-17T16:37:50.476Z,17.58
2023-01-17T16:40:18.417Z,19.45
2023-01-17T16:42:45.222Z,17.27
2023-01-17T16:45:12.379Z,17.40
2023-01-17T16:47:42.545Z,19.05
2023-01-17T16:50:11.310Z,19.27
2023-01-17T16:52:38.273Z,21.33
2023-01-17T16:55:06.237Z,27.95
2023-01-17T16:57:32.983Z,22.45
2023-01-17T16:59:59.777Z,33.25
2023-01-17T17:02:26.501Z,20.30
2023-01-17T17:04:53.426Z,14.63
2023-01-17T17:07:20.173Z,22.13
2023-01-17T17:09:47.697Z,18.55
2023-01-17T17:12:14.470Z,17.00
2023-01-17T17:14:41.336Z,28.88
2023-01-17T17:17:08.351Z,34.10
2023-01-17T17:19:35.207Z,26.73
2023-01-17T17:22:02.065Z,27.75
2023-01-17T17:24:28.916Z,25.42
2023-01-17T17:26:55.623Z,27.45
2023-01-17T17:29:22.327Z,20.60
2023-01-17T17:31:49.182Z,23.88
2023-01-17T17:34:15.874Z,24.00
2023-01-17T17:36:42.583Z,20.50
2023-01-17T17:39:12.527Z,18.05
2023-01-17T17:41:41.878Z,21.48
2023-01-17T17:44:08.683Z,25.83
2023-01-17T17:46:37.025Z,30.83
2023-01-17T17:49:04.870Z,23.05
2023-01-17T17:51:35.353Z,23.67
2023-01-17T17:54:04.088Z,20.15
2023-01-17T17:56:31.594Z,32.55
2023-01-17T17:58:59.000Z,30.13
2023-01-17T18:01:25.971Z,28.23
2023-01-17T18:03:53.757Z,20.33
2023-01-17T18:06:20.679Z,21.70
2023-01-17T18:08:47.445Z,20.00
2023-01-17T18:11:18.412Z,25.73
2023-01-17T18:13:47.709Z,22.85
2023-01-17T18:16:15.507Z,26.60
2023-01-17T18:18:45.050Z,30.55
2023-01-17T18:21:16.357Z,38.40
2023-01-17T18:23:44.167Z,22.60
2023-01-17T18:26:18.499Z,25.35
2023-01-17T18:28:45.371Z,22.10
2023-01-17T18:31:12.135Z,20.63
2023-01-17T18:33:39.670Z,21.90
2023-01-17T18:36:07.555Z,28.05
2023-01-17T18:38:44.832Z,20.58
2023-01-17T18:41:15.256Z,21.83
2023-01-17T18:43:42.071Z,21.13
2023-01-17T18:46:09.265Z,26.20
2023-01-17T18:48:36.208Z,26.73
2023-01-17T18:51:13.769Z,19.45
2023-01-17T18:53:41.168Z,18.05
2023-01-17T18:56:09.618Z,20.23
2023-01-17T18:58:43.909Z,23.45
2023-01-17T19:01:20.476Z,20.65
2023-01-17T19:03:49.647Z,22.77
2023-01-17T19:06:21.711Z,19.00
2023-01-17T19:08:49.391Z,19.60
2023-01-17T19:11:16.135Z,24.73
2023-01-17T19:13:42.846Z,25.25
2023-01-17T19:16:15.842Z,19.88
2023-01-17T19:18:42.890Z,24.63
2023-01-17T19:21:11.634Z,24.10
2023-01-17T19:23:38.432Z,20.85
2023-01-17T19:26:06.511Z,20.05
2023-01-17T19:28:35.755Z,26.13
2023-01-17T19:31:22.949Z,20.25
2023-01-17T19:33:51.705Z,26.77
2023-01-17T19:36:21.446Z,23.92
2023-01-17T19:39:03.125Z,25.75
2023-01-17T19:41:32.119Z,25.15
2023-01-17T19:44:07.114Z,23.85
2023-01-17T19:46:34.280Z,24.30
2023-01-17T19:49:01.359Z,26.35
2023-01-17T19:51:28.233Z,19.48
2023-01-17T19:53:55.179Z,25.83
2023-01-17T19:56:23.495Z,25.90
2023-01-17T19:58:50.485Z,30.58
2023-01-17T20:01:25.242Z,21.80
2023-01-17T20:03:52.310Z,24.90
2023-01-17T20:06:20.779Z,21.83
2023-01-17T20:08:47.545Z,29.95
2023-01-17T20:11:18.539Z,29.33
2023-01-17T20:13:46.041Z,23.95
2023-01-17T20:16:14.087Z,28.80
2023-01-17T20:18:41.161Z,27.98
2023-01-17T20:21:12.465Z,30.42
2023-01-17T20:23:42.235Z,22.98
2023-01-17T20:26:09.991Z,26.45
2023-01-17T20:28:37.315Z,18.92
2023-01-17T20:31:18.345Z,22.48
2023-01-17T20:33:45.761Z,36.45
2023-01-17T20:36:14.887Z,27.98
2023-01-17T20:38:44.794Z,21.05
2023-01-17T20:41:40.484Z,21.73
2023-01-17T20:44:09.551Z,25.98
2023-01-17T20:46:40.639Z,24.58
2023-01-17T20:49:10.059Z,28.55
2023-01-17T20:51:40.264Z,24.80
2023-01-17T20:54:08.861Z,25.90
2023-01-17T20:56:37.744Z,31.20
2023-01-17T20:59:08.603Z,19.88
2023-01-17T21:01:36.478Z,23.52
2023-01-17T21:04:03.401Z,25.15
2023-01-17T21:06:30.872Z,24.77
2023-01-17T21:08:58.360Z,23.70
2023-01-17T21:11:25.505Z,22.05
2023-01-17T21:13:52.294Z,23.88
2023-01-17T21:16:21.054Z,20.90
2023-01-17T21:18:48.854Z,23.38
2023-01-17T21:21:18.204Z,25.88
2023-01-17T21:23:45.206Z,24.17
2023-01-17T21:26:13.542Z,16.42
2023-01-17T21:28:43.144Z,21.38
2023-01-17T21:31:24.302Z,21.50
2023-01-17T21:33:59.281Z,25.52
2023-01-17T21:36:27.795Z,26.33
2023-01-17T21:38:57.036Z,25.05
2023-01-17T21:41:25.795Z,16.77
2023-01-17T21:43:56.618Z,21.75
2023-01-17T21:46:23.726Z,26.90
2023-01-17T21:48:50.486Z,27.88
2023-01-17T21:51:17.515Z,24.90
2023-01-17T21:53:44.324Z,18.33
2023-01-17T21:56:30.979Z,26.77
2023-01-17T21:58:58.106Z,21.20
2023-01-17T22:01:29.497Z,22.70
2023-01-17T22:04:03.079Z,25.73
2023-01-17T22:06:31.741Z,24.60
2023-01-17T22:09:00.387Z,22.08
2023-01-17T22:11:28.302Z,21.17
2023-01-17T22:13:56.323Z,23.13
2023-01-17T22:16:24.578Z,22.25
2023-01-17T22:18:51.367Z,25.40
2023-01-17T22:21:23.253Z,24.60
2023-01-17T22:23:52.173Z,20.80
2023-01-17T22:26:19.464Z,17.55
2023-01-17T22:28:46.252Z,28.48
2023-01-17T22:31:24.251Z,24.55
2023-01-17T22:33:59.484Z,24.50
2023-01-17T22:36:26.311Z,19.50
2023-01-17T22:38:53.117Z,16.65
2023-01-17T22:41:24.030Z,16.67
2023-01-17T22:43:53.687Z,19.33
2023-01-17T22:46:22.227Z,22.48
2023-01-17T22:48:49.231Z,18.63
2023-01-17T22:51:16.947Z,19.95
2023-01-17T22:53:51.258Z,19.17
2023-01-17T22:56:20.003Z,16.70
2023-01-17T22:58:48.708Z,15.57
2023-01-17T23:01:20.216Z,14.82
2023-01-17T23:03:49.725Z,17.33
2023-01-17T23:06:19.146Z,22.60
2023-01-17T23:08:47.664Z,16.63
2023-01-17T23:11:39.049Z,17.33
2023-01-17T23:14:12.412Z,14.95
2023-01-17T23:16:59.048Z,20.40
2023-01-17T23:19:26.860Z,20.25
2023-01-17T23:22:14.317Z,16.05
2023-01-17T23:24:45.431Z,14.38
2023-01-17T23:27:44.302Z,15.02
2023-01-17T23:30:15.289Z,20.73
2023-01-17T23:32:52.782Z,13.38
2023-01-17T23:35:20.765Z,14.32
2023-01-17T23:38:05.922Z,10.38
2023-01-17T23:40:33.032Z,12.85
2023-01-17T23:43:18.405Z,11.85
2023-01-17T23:45:45.134Z,12.75
2023-01-17T23:48:11.974Z,17.80
2023-01-17T23:50:42.005Z,9.20
2023-01-17T23:53:09.213Z,12.10
2023-01-17T23:55:37.657Z,13.07
2023-01-17T23:58:05.841Z,9.32
